createdAt,value
2022-10-07T00:02:35.645Z,100.00
2022-10-07T00:06:37.692Z,100.00
2022-10-07T00:10:41.680Z,100.00
2022-10-07T00:14:44.534Z,100.00
2022-10-07T00:18:48.510Z,100.00
2022-10-07T00:22:51.302Z,100.00
2022-10-07T00:26:53.413Z,100.00
2022-10-07T00:31:06.841Z,100.00
2022-10-07T00:35:09.060Z,100.00
2022-10-07T00:39:13.831Z,100.00
2022-10-07T00:43:26.342Z,100.00
2022-10-07T00:47:31.035Z,100.00
2022-10-07T00:51:35.279Z,100.00
2022-10-07T00:55:37.345Z,100.00
2022-10-07T00:59:40.175Z,100.00
2022-10-07T01:03:43.889Z,100.00
2022-10-07T01:07:48.112Z,100.00
2022-10-07T01:11:53.167Z,100.00
2022-10-07T01:16:00.888Z,100.00
2022-10-07T01:20:11.949Z,100.00
2022-10-07T01:24:15.244Z,100.00
2022-10-07T01:28:27.200Z,100.00
2022-10-07T01:32:56.724Z,100.00
2022-10-07T01:37:01.368Z,100.00
2022-10-07T01:41:09.668Z,100.00
2022-10-07T01:45:21.224Z,100.00
2022-10-07T01:49:24.079Z,100.00
2022-10-07T01:53:32.375Z,100.00
2022-10-07T01:57:40.798Z,100.00
2022-10-07T02:01:53.972Z,100.00
2022-10-07T02:06:21.279Z,100.00
2022-10-07T02:10:28.420Z,100.00
2022-10-07T02:14:45.692Z,100.00
2022-10-07T02:18:52.526Z,100.00
2022-10-07T02:22:58.174Z,100.00
2022-10-07T02:27:06.243Z,100.00
2022-10-07T02:31:11.323Z,100.00
2022-10-07T02:35:38.210Z,100.00
2022-10-07T02:39:43.018Z,100.00
2022-10-07T02:43:56.287Z,100.00
2022-10-07T02:48:11.426Z,100.00
2022-10-07T02:52:19.426Z,100.00
2022-10-07T02:56:26.268Z,100.00
2022-10-07T03:00:31.887Z,100.00
2022-10-07T03:04:34.278Z,100.00
2022-10-07T03:08:36.487Z,100.00
2022-10-07T03:12:38.501Z,100.00
2022-10-07T03:16:40.714Z,100.00
2022-10-07T03:20:43.803Z,100.00
2022-10-07T03:24:45.965Z,100.00
2022-10-07T03:28:49.143Z,100.00
2022-10-07T03:32:51.755Z,100.00
2022-10-07T03:36:55.338Z,100.00
2022-10-07T03:40:58.047Z,100.00
2022-10-07T03:45:00.316Z,100.00
2022-10-07T03:49:05.431Z,100.00
2022-10-07T03:53:10.063Z,100.00
2022-10-07T03:57:31.091Z,100.00
2022-10-07T04:01:35.688Z,100.00
2022-10-07T04:05:37.933Z,100.00
2022-10-07T04:09:41.148Z,100.00
2022-10-07T04:13:43.283Z,100.00
2022-10-07T04:17:47.140Z,100.00
2022-10-07T04:21:52.949Z,100.00
2022-10-07T04:25:55.475Z,100.00
2022-10-07T04:29:57.829Z,100.00
2022-10-07T04:33:59.836Z,100.00
2022-10-07T04:38:12.816Z,100.00
2022-10-07T04:42:35.131Z,100.00
2022-10-07T04:46:37.279Z,100.00
2022-10-07T04:50:45.555Z,100.00
2022-10-07T04:54:47.670Z,100.00
2022-10-07T04:58:49.916Z,100.00
2022-10-07T05:02:54.553Z,100.00
2022-10-07T05:06:57.762Z,100.00
2022-10-07T05:11:02.154Z,100.00
2022-10-07T05:15:42.821Z,100.00
2022-10-07T05:19:45.024Z,100.00
2022-10-07T05:23:47.355Z,100.00
2022-10-07T05:27:54.855Z,100.00
2022-10-07T05:32:03.732Z,100.00
2022-10-07T05:36:09.280Z,100.00
2022-10-07T05:40:12.834Z,100.00
2022-10-07T05:44:15.362Z,100.00
2022-10-07T05:48:18.075Z,100.00
2022-10-07T05:52:24.042Z,100.00
2022-10-07T05:56:27.307Z,100.00
2022-10-07T06:00:32.381Z,100.00
2022-10-07T06:04:35.448Z,100.00
2022-10-07T06:08:37.909Z,100.00
2022-10-07T06:12:59.330Z,100.00
2022-10-07T06:17:01.807Z,100.00
2022-10-07T06:21:08.805Z,100.00
2022-10-07T06:25:12.954Z,100.00
2022-10-07T06:29:18.761Z,100.00
2022-10-07T06:33:21.048Z,100.00
2022-10-07T06:37:23.891Z,100.00
2022-10-07T06:41:26.144Z,100.00
2022-10-07T06:45:42.807Z,100.00
2022-10-07T06:49:46.489Z,100.00
2022-10-07T06:53:54.353Z,100.00
2022-10-07T06:57:57.298Z,100.00
2022-10-07T07:02:00.087Z,100.00
2022-10-07T07:06:03.656Z,100.00
2022-10-07T07:10:09.137Z,100.00
2022-10-07T07:14:15.716Z,100.00
2022-10-07T07:18:24.637Z,100.00
2022-10-07T07:22:27.455Z,100.00
2022-10-07T07:26:30.496Z,100.00
2022-10-07T07:30:34.024Z,100.00
2022-10-07T07:34:38.314Z,100.00
2022-10-07T07:38:43.869Z,100.00
2022-10-07T07:42:46.286Z,100.00
2022-10-07T07:46:52.255Z,100.00
2022-10-07T07:50:56.038Z,100.00
2022-10-07T07:54:59.257Z,100.00
2022-10-07T07:59:04.011Z,100.00
2022-10-07T08:03:08.080Z,100.00
2022-10-07T08:07:13.392Z,100.00
2022-10-07T08:11:20.486Z,100.00
2022-10-07T08:15:25.065Z,100.00
2022-10-07T08:19:29.539Z,100.00
2022-10-07T08:23:32.362Z,100.00
2022-10-07T08:27:35.176Z,100.00
2022-10-07T08:31:37.400Z,100.00
2022-10-07T08:35:40.949Z,100.00
2022-10-07T08:39:43.107Z,100.00
2022-10-07T08:43:49.373Z,100.00
2022-10-07T08:47:53.341Z,100.00
2022-10-07T08:52:03.003Z,100.00
2022-10-07T08:56:20.571Z,100.00
2022-10-07T09:00:24.978Z,100.00
2022-10-07T09:04:45.043Z,100.00
2022-10-07T09:08:57.194Z,100.00
2022-10-07T09:13:05.636Z,100.00
2022-10-07T09:17:20.054Z,100.00
2022-10-07T09:21:25.664Z,100.00
2022-10-07T09:25:30.434Z,100.00
2022-10-07T09:29:32.469Z,100.00
2022-10-07T09:33:42.748Z,100.00
2022-10-07T09:37:56.056Z,100.00
2022-10-07T09:41:58.069Z,100.00
2022-10-07T09:46:01.412Z,100.00
2022-10-07T09:50:03.779Z,100.00
2022-10-07T09:54:18.611Z,100.00
2022-10-07T09:58:31.383Z,100.00
2022-10-07T10:02:33.870Z,100.00
2022-10-07T10:06:36.046Z,100.00
2022-10-07T10:10:37.988Z,100.00
2022-10-07T10:15:03.476Z,100.00
2022-10-07T10:19:21.884Z,100.00
2022-10-07T10:23:34.681Z,100.00
2022-10-07T10:27:50.755Z,100.00
2022-10-07T10:32:02.126Z,100.00
2022-10-07T10:36:17.232Z,100.00
2022-10-07T10:40:35.514Z,100.00
2022-10-07T10:44:56.658Z,100.00
2022-10-07T10:49:11.188Z,100.00
2022-10-07T10:53:25.207Z,100.00
2022-10-07T10:58:00.418Z,100.00
2022-10-07T11:02:26.786Z,100.00
2022-10-07T11:06:33.010Z,100.00
2022-10-07T11:10:40.963Z,100.00
2022-10-07T11:14:51.198Z,100.00
2022-10-07T11:19:19.982Z,100.00
2022-10-07T11:23:54.481Z,100.00
2022-10-07T11:28:07.279Z,100.00
2022-10-07T11:32:18.160Z,100.00
2022-10-07T11:36:31.098Z,100.00
2022-10-07T11:40:35.254Z,100.00
2022-10-07T11:45:00.312Z,93.27
2022-10-07T11:49:11.389Z,100.00
2022-10-07T11:53:22.001Z,100.00
2022-10-07T11:57:32.015Z,100.00
2022-10-07T12:01:47.354Z,100.00
2022-10-07T12:05:49.420Z,100.00
2022-10-07T12:10:07.528Z,94.91
2022-10-07T12:14:33.943Z,91.93
2022-10-07T12:18:37.398Z,97.92
2022-10-07T12:22:42.510Z,100.00
2022-10-07T12:26:46.024Z,98.91
2022-10-07T12:30:54.351Z,94.55
2022-10-07T12:34:56.548Z,97.59
2022-10-07T12:38:59.207Z,96.31
2022-10-07T12:43:22.150Z,92.98
2022-10-07T12:47:29.867Z,92.80
2022-10-07T12:51:41.506Z,92.02
2022-10-07T12:55:48.430Z,93.30
2022-10-07T12:59:59.595Z,90.41
2022-10-07T13:04:14.612Z,91.38
2022-10-07T13:08:33.239Z,85.93
2022-10-07T13:13:15.947Z,85.51
2022-10-07T13:17:28.383Z,78.46
2022-10-07T13:21:39.679Z,82.70
2022-10-07T13:25:53.264Z,83.79
2022-10-07T13:29:57.613Z,90.32
2022-10-07T13:34:14.135Z,89.90
2022-10-07T13:38:28.433Z,87.04
2022-10-07T13:42:30.995Z,90.72
2022-10-07T13:46:36.049Z,89.41
2022-10-07T13:50:38.600Z,87.67
2022-10-07T13:54:40.599Z,86.26
2022-10-07T13:58:43.312Z,86.55
2022-10-07T14:02:46.738Z,82.53
2022-10-07T14:06:56.129Z,70.11
2022-10-07T14:11:01.420Z,75.41
2022-10-07T14:15:13.308Z,70.65
2022-10-07T14:19:21.219Z,64.90
2022-10-07T14:23:31.444Z,68.95
2022-10-07T14:27:54.134Z,59.23
2022-10-07T14:32:29.053Z,59.00
2022-10-07T14:36:31.396Z,67.03
2022-10-07T14:40:33.422Z,67.71
2022-10-07T14:44:36.383Z,68.09
2022-10-07T14:48:39.216Z,68.11
2022-10-07T14:52:46.921Z,65.49
2022-10-07T14:56:49.669Z,70.79
2022-10-07T15:00:54.577Z,69.33
2022-10-07T15:04:56.759Z,69.22
2022-10-07T15:08:59.583Z,70.29
2022-10-07T15:13:04.245Z,69.93
2022-10-07T15:17:07.060Z,67.99
2022-10-07T15:21:09.206Z,69.51
2022-10-07T15:25:12.798Z,70.57
2022-10-07T15:29:15.423Z,72.45
2022-10-07T15:33:17.427Z,73.59
2022-10-07T15:37:20.422Z,74.00
2022-10-07T15:41:33.709Z,77.40
2022-10-07T15:45:36.166Z,82.07
2022-10-07T15:49:38.370Z,83.85
2022-10-07T15:53:40.416Z,84.40
2022-10-07T15:57:43.040Z,84.21
2022-10-07T16:01:45.363Z,85.10
2022-10-07T16:05:59.670Z,85.96
2022-10-07T16:10:01.876Z,86.81
2022-10-07T16:14:04.043Z,86.55
2022-10-07T16:18:06.619Z,86.85
2022-10-07T16:22:08.660Z,87.05
2022-10-07T16:26:30.680Z,88.73
2022-10-07T16:30:41.575Z,91.21
2022-10-07T16:34:44.620Z,95.41
2022-10-07T16:38:47.649Z,99.61
2022-10-07T16:42:51.188Z,100.00
2022-10-07T16:46:56.910Z,100.00
2022-10-07T16:50:59.472Z,100.00
2022-10-07T16:55:01.555Z,100.00
2022-10-07T16:59:05.983Z,100.00
2022-10-07T17:03:07.913Z,100.00
2022-10-07T17:07:10.743Z,100.00
2022-10-07T17:11:30.366Z,100.00
2022-10-07T17:15:32.380Z,100.00
2022-10-07T17:19:36.551Z,100.00
2022-10-07T17:23:38.597Z,100.00
2022-10-07T17:27:40.584Z,100.00
2022-10-07T17:31:44.719Z,100.00
2022-10-07T17:35:47.349Z,100.00
2022-10-07T17:39:49.463Z,100.00
2022-10-07T17:43:53.786Z,100.00
2022-10-07T17:47:57.612Z,100.00
2022-10-07T17:51:59.835Z,100.00
2022-10-07T17:56:03.077Z,100.00
2022-10-07T18:00:07.010Z,100.00
2022-10-07T18:04:22.520Z,100.00
2022-10-07T18:08:26.975Z,100.00
2022-10-07T18:12:47.791Z,100.00
2022-10-07T18:16:49.780Z,100.00
2022-10-07T18:20:54.662Z,100.00
2022-10-07T18:24:57.429Z,100.00
2022-10-07T18:29:01.225Z,100.00
2022-10-07T18:33:03.228Z,100.00
2022-10-07T18:37:05.242Z,100.00
2022-10-07T18:41:10.266Z,100.00
2022-10-07T18:45:12.306Z,100.00
2022-10-07T18:49:15.009Z,100.00
2022-10-07T18:53:17.102Z,100.00
2022-10-07T18:57:19.766Z,100.00
2022-10-07T19:01:24.801Z,100.00
2022-10-07T19:05:29.379Z,100.00
2022-10-07T19:09:35.343Z,100.00
2022-10-07T19:13:54.081Z,100.00
2022-10-07T19:17:56.594Z,100.00
2022-10-07T19:21:58.700Z,100.00
2022-10-07T19:26:01.863Z,100.00
2022-10-07T19:30:05.475Z,100.00
2022-10-07T19:34:11.302Z,100.00
2022-10-07T19:38:13.916Z,100.00
2022-10-07T19:42:17.146Z,100.00
2022-10-07T19:46:21.518Z,100.00
2022-10-07T19:50:23.889Z,100.00
2022-10-07T19:54:25.981Z,100.00
2022-10-07T19:58:28.511Z,100.00
2022-10-07T20:02:30.764Z,100.00
2022-10-07T20:06:34.633Z,100.00
2022-10-07T20:10:38.340Z,100.00
2022-10-07T20:14:40.402Z,100.00
2022-10-07T20:18:42.753Z,100.00
2022-10-07T20:22:49.261Z,100.00
2022-10-07T20:26:51.611Z,100.00
2022-10-07T20:30:54.686Z,100.00
2022-10-07T20:34:57.095Z,100.00
2022-10-07T20:39:20.710Z,100.00
2022-10-07T20:43:22.894Z,100.00
2022-10-07T20:47:27.949Z,100.00
2022-10-07T20:51:30.478Z,100.00
2022-10-07T20:55:36.509Z,100.00
2022-10-07T20:59:39.777Z,100.00
2022-10-07T21:03:42.329Z,100.00
2022-10-07T21:07:45.009Z,100.00
2022-10-07T21:11:48.366Z,100.00
2022-10-07T21:15:50.413Z,100.00
2022-10-07T21:19:52.446Z,100.00
2022-10-07T21:23:54.570Z,100.00
2022-10-07T21:27:56.538Z,100.00
2022-10-07T21:31:58.759Z,100.00
2022-10-07T21:36:10.875Z,100.00
2022-10-07T21:40:12.854Z,100.00
2022-10-07T21:44:15.474Z,100.00
2022-10-07T21:48:17.412Z,100.00
2022-10-07T21:52:19.519Z,100.00
2022-10-07T21:56:21.848Z,100.00
2022-10-07T22:00:23.839Z,100.00
2022-10-07T22:04:29.574Z,100.00
2022-10-07T22:08:37.388Z,100.00
2022-10-07T22:12:39.466Z,100.00
2022-10-07T22:16:42.458Z,100.00
2022-10-07T22:20:44.637Z,100.00
2022-10-07T22:24:46.634Z,100.00
2022-10-07T22:28:49.733Z,100.00
2022-10-07T22:32:51.762Z,100.00
2022-10-07T22:36:54.287Z,100.00
2022-10-07T22:40:56.259Z,100.00
2022-10-07T22:44:58.257Z,100.00
2022-10-07T22:49:00.679Z,100.00
2022-10-07T22:53:02.997Z,100.00
2022-10-07T22:57:06.986Z,100.00
2022-10-07T23:01:11.831Z,100.00
2022-10-07T23:05:13.973Z,100.00
2022-10-07T23:09:15.938Z,100.00
2022-10-07T23:13:17.893Z,100.00
2022-10-07T23:17:20.410Z,100.00
2022-10-07T23:21:25.827Z,100.00
2022-10-07T23:25:28.804Z,100.00
2022-10-07T23:29:32.721Z,100.00
2022-10-07T23:33:36.272Z,100.00
2022-10-07T23:37:38.297Z,100.00
2022-10-07T23:41:40.306Z,100.00
2022-10-07T23:45:45.692Z,100.00
2022-10-07T23:49:47.718Z,100.00
2022-10-07T23:53:50.157Z,100.00
2022-10-07T23:57:52.325Z,100.00
